Time;durP1;ratioP1;P1;durP2;ratioP2;P2;SDS_P1;SDS_P2;PMS_P1;PMS_P2;Temp;Humidity;BMP_temperature;BMP_pressure;BME280_temperature;BME280_humidity;BME280_pressure;Samples;Min_cycle;Max_cycle;Signal;HPM_P1;HPM_P2
2023/10/09 00:03:01;;;;;;;19.20;11.45;;;16.20;88.20;;;;;;5015893;28;20040;-74
2023/10/09 00:08:30;;;;;;;18.13;11.13;;;16.20;88.20;;;;;;5020143;28;20037;-78
2023/10/09 00:10:57;;;;;;;15.43;10.45;;;16.20;88.20;;;;;;5018937;28;20040;-77
2023/10/09 00:13:32;;;;;;;19.23;11.57;;;16.20;88.20;;;;;;5015407;28;20030;-77
2023/10/09 00:16:14;;;;;;;18.83;11.95;;;16.20;88.20;;;;;;5018454;28;20053;-77
2023/10/09 00:18:46;;;;;;;14.85;10.43;;;16.30;88.00;;;;;;5012109;28;20040;-77
2023/10/09 00:21:20;;;;;;;16.20;10.45;;;16.30;87.80;;;;;;5018032;28;20253;-79
2023/10/09 00:23:54;;;;;;;15.77;10.93;;;16.30;87.70;;;;;;5024816;28;20032;-76
2023/10/09 00:26:20;;;;;;;17.52;11.00;;;16.30;87.80;;;;;;5019013;28;20045;-75
2023/10/09 00:28:47;;;;;;;17.30;10.50;;;16.30;87.80;;;;;;5009580;28;20068;-79
2023/10/09 00:31:16;;;;;;;15.88;11.23;;;16.30;87.80;;;;;;5015168;28;20131;-77
2023/10/09 00:33:45;;;;;;;15.43;10.70;;;16.30;87.80;;;;;;5014088;28;20051;-76
2023/10/09 00:36:12;;;;;;;16.65;10.90;;;16.30;87.80;;;;;;5009190;28;20435;-77
2023/10/09 00:38:45;;;;;;;15.38;10.25;;;16.20;87.70;;;;;;5016413;28;20029;-76
2023/10/09 00:41:13;;;;;;;18.50;11.65;;;16.30;87.70;;;;;;5019351;28;20384;-77
2023/10/09 00:43:42;;;;;;;15.70;10.60;;;16.30;87.60;;;;;;5019851;28;20128;-77
2023/10/09 00:46:16;;;;;;;14.00;9.90;;;16.20;87.60;;;;;;5017005;28;20140;-77
2023/10/09 00:48:42;;;;;;;15.45;10.25;;;16.20;87.70;;;;;;5012368;28;20361;-77
2023/10/09 00:51:18;;;;;;;16.60;11.82;;;16.20;87.70;;;;;;5014168;28;20041;-76
2023/10/09 00:53:51;;;;;;;16.90;11.60;;;16.20;87.80;;;;;;5014288;28;20017;-76
2023/10/09 00:58:59;;;;;;;15.05;10.27;;;16.20;87.90;;;;;;5014219;28;20379;-77
2023/10/09 01:02:07;;;;;;;;;;;16.20;88.00;;;;;;5015522;28;20434;-77
2023/10/09 01:04:17;;;;;;;19.02;11.55;;;16.20;88.00;;;;;;5006673;28;20288;-79
2023/10/09 01:06:47;;;;;;;17.95;11.25;;;16.10;88.10;;;;;;5014308;28;20415;-79
2023/10/09 01:09:14;;;;;;;17.25;11.25;;;16.10;88.10;;;;;;5018471;28;20037;-77
2023/10/09 01:12:03;;;;;;;17.02;11.27;;;16.10;88.10;;;;;;5013046;28;20090;-75
2023/10/09 01:14:31;;;;;;;16.50;11.55;;;16.10;88.10;;;;;;5013900;28;20068;-76
2023/10/09 01:16:57;;;;;;;16.20;11.38;;;16.20;88.00;;;;;;5017882;28;20025;-79
2023/10/09 01:19:30;;;;;;;16.15;11.77;;;16.20;87.90;;;;;;5018798;28;20091;-77
2023/10/09 01:22:04;;;;;;;16.13;11.20;;;16.20;87.80;;;;;;5019282;28;20021;-77
2023/10/09 01:24:31;;;;;;;17.00;12.40;;;16.10;87.80;;;;;;5012762;28;20120;-76
2023/10/09 01:26:59;;;;;;;15.88;11.40;;;16.20;87.80;;;;;;5017589;28;20538;-77
2023/10/09 01:29:27;;;;;;;14.80;10.70;;;16.20;87.70;;;;;;5014612;28;20025;-78
2023/10/09 01:31:55;;;;;;;15.27;11.18;;;16.20;87.70;;;;;;5017416;28;20059;-78
2023/10/09 01:37:23;;;;;;;15.85;11.00;;;16.20;87.70;;;;;;5018517;28;20048;-78
2023/10/09 01:39:50;;;;;;;16.77;11.85;;;16.20;87.80;;;;;;5013777;28;20049;-79
2023/10/09 01:42:50;;;;;;;18.30;12.02;;;16.20;87.70;;;;;;5020451;28;20017;-79
2023/10/09 01:47:46;;;;;;;16.25;10.80;;;16.20;87.80;;;;;;5015394;28;20116;-77
2023/10/09 01:50:20;;;;;;;19.23;11.32;;;16.20;87.80;;;;;;5016192;28;20075;-75
2023/10/09 01:52:46;;;;;;;14.27;11.07;;;16.10;87.80;;;;;;5012307;28;20520;-76
2023/10/09 01:58:05;;;;;;;16.08;10.82;;;16.20;88.00;;;;;;5016756;28;20064;-76
2023/10/09 02:01:17;;;;;;;14.55;11.13;;;16.10;88.10;;;;;;5014729;28;20041;-77
2023/10/09 02:03:18;;;;;;;19.40;11.27;;;16.10;88.00;;;;;;5013800;28;20068;-78
2023/10/09 02:05:43;;;;;;;15.93;11.48;;;16.10;88.10;;;;;;5015633;28;20492;-76
2023/10/09 02:08:13;;;;;;;15.65;10.35;;;16.10;88.10;;;;;;5017284;28;20040;-78
2023/10/09 02:10:39;;;;;;;14.90;10.85;;;16.10;88.20;;;;;;5014128;28;20047;-76
2023/10/09 02:13:06;;;;;;;15.40;11.15;;;16.10;88.30;;;;;;5013635;28;20029;-76
2023/10/09 02:21:28;;;;;;;16.40;10.95;;;16.10;88.40;;;;;;5018904;28;20517;-79
2023/10/09 02:23:49;;;;;;;16.80;11.98;;;16.10;88.30;;;;;;5010352;28;20062;-74
2023/10/09 02:29:03;;;;;;;16.75;12.15;;;16.10;88.40;;;;;;5018673;28;20514;-76
2023/10/09 02:31:43;;;;;;;16.30;12.32;;;16.10;88.30;;;;;;5014926;28;20191;-77
2023/10/09 02:34:15;;;;;;;17.25;12.55;;;16.10;88.30;;;;;;5021142;28;20017;-79
2023/10/09 02:36:42;;;;;;;18.15;12.88;;;16.10;88.20;;;;;;5017650;28;20044;-75
2023/10/09 02:39:22;;;;;;;19.05;13.25;;;16.10;88.10;;;;;;5017113;28;20030;-74
2023/10/09 02:41:55;;;;;;;22.20;14.80;;;16.10;88.30;;;;;;5018744;28;20053;-76
2023/10/09 02:44:25;;;;;;;20.02;14.60;;;16.10;88.30;;;;;;5015789;28;20239;-75
2023/10/09 02:46:51;;;;;;;18.17;14.48;;;16.00;88.40;;;;;;5020278;28;20111;-75
2023/10/09 02:49:18;;;;;;;19.77;14.77;;;16.00;88.40;;;;;;5018889;28;20192;-77
2023/10/09 02:51:45;;;;;;;21.23;14.70;;;16.00;88.40;;;;;;5016566;28;20559;-74
2023/10/09 02:54:34;;;;;;;21.23;15.35;;;16.00;88.60;;;;;;4996708;28;20749;-76
2023/10/09 02:57:07;;;;;;;24.35;18.15;;;16.00;88.50;;;;;;5022220;28;20049;-76
2023/10/09 02:59:44;;;;;;;22.13;16.45;;;15.90;88.60;;;;;;5017550;28;20021;-75
2023/10/09 03:02:10;;;;;;;23.23;16.92;;;15.90;88.70;;;;;;5021765;28;20035;-74
2023/10/09 03:04:38;;;;;;;21.02;16.98;;;15.90;88.60;;;;;;5018880;28;20116;-75
2023/10/09 03:07:05;;;;;;;20.90;16.10;;;15.90;88.70;;;;;;5018196;28;20017;-78
2023/10/09 03:09:32;;;;;;;23.77;18.17;;;15.80;88.80;;;;;;5020378;28;20499;-75
2023/10/09 03:12:02;;;;;;;21.67;17.33;;;15.80;88.80;;;;;;5016672;28;20029;-75
2023/10/09 03:14:30;;;;;;;24.48;18.40;;;15.80;88.90;;;;;;5019815;28;20468;-77
2023/10/09 03:16:56;;;;;;;26.42;18.58;;;15.80;89.10;;;;;;5019399;28;20057;-77
2023/10/09 03:19:26;;;;;;;21.50;16.13;;;15.80;89.20;;;;;;5020676;28;20400;-76
2023/10/09 03:21:52;;;;;;;23.55;16.95;;;15.80;89.10;;;;;;5021837;28;20038;-73
2023/10/09 03:24:19;;;;;;;21.00;17.40;;;15.80;89.10;;;;;;5022008;28;20035;-78
2023/10/09 03:26:45;;;;;;;23.20;17.92;;;15.80;89.20;;;;;;5019857;28;20045;-76
2023/10/09 03:29:11;;;;;;;21.30;16.30;;;15.70;89.20;;;;;;5019792;28;20097;-75
2023/10/09 03:31:38;;;;;;;22.20;16.45;;;15.80;89.30;;;;;;5021216;28;20111;-76
2023/10/09 03:34:04;;;;;;;21.42;15.90;;;15.70;89.30;;;;;;5014302;28;20100;-75
2023/10/09 03:36:37;;;;;;;19.55;14.80;;;15.70;89.40;;;;;;5017680;28;20099;-78
2023/10/09 03:39:17;;;;;;;22.48;15.82;;;15.70;89.40;;;;;;5018099;28;20033;-76
2023/10/09 03:41:46;;;;;;;21.80;15.70;;;15.60;89.50;;;;;;5013448;28;20044;-77
2023/10/09 03:44:18;;;;;;;21.55;15.38;;;15.60;89.50;;;;;;5020377;28;20309;-75
2023/10/09 03:46:44;;;;;;;22.70;16.23;;;15.60;89.50;;;;;;5014983;28;20512;-78
2023/10/09 03:49:15;;;;;;;21.70;15.90;;;15.60;89.60;;;;;;5019509;28;20116;-76
2023/10/09 03:51:42;;;;;;;19.98;14.98;;;15.60;89.70;;;;;;5022922;28;20543;-75
2023/10/09 03:54:08;;;;;;;21.95;16.05;;;15.60;89.70;;;;;;5016482;28;20132;-75
2023/10/09 03:56:35;;;;;;;22.70;15.50;;;15.60;89.70;;;;;;5018936;28;20068;-74
2023/10/09 03:59:03;;;;;;;22.20;15.52;;;15.60;89.70;;;;;;5017012;28;20029;-74
2023/10/09 04:01:29;;;;;;;21.27;16.58;;;15.60;89.60;;;;;;5017724;28;20037;-74
2023/10/09 04:03:59;;;;;;;22.17;15.85;;;15.60;89.70;;;;;;5018322;28;20029;-75
2023/10/09 04:06:32;;;;;;;20.95;16.20;;;15.60;89.80;;;;;;5018324;28;20034;-77
2023/10/09 04:11:46;;;;;;;23.13;16.70;;;15.50;90.00;;;;;;5018022;28;20044;-77
2023/10/09 04:14:24;;;;;;;24.95;17.52;;;15.50;90.00;;;;;;5017608;28;20076;-76
2023/10/09 04:16:56;;;;;;;24.85;17.98;;;15.60;90.00;;;;;;5019356;28;20078;-78
2023/10/09 04:19:22;;;;;;;22.50;17.50;;;15.60;90.00;;;;;;5017296;28;20329;-76
2023/10/09 04:21:55;;;;;;;23.85;18.50;;;15.60;89.90;;;;;;5019945;28;20075;-76
2023/10/09 04:26:47;;;;;;;26.98;19.35;;;15.60;90.10;;;;;;5020865;28;20422;-77
2023/10/09 04:29:37;;;;;;;24.30;17.90;;;15.60;90.20;;;;;;5019910;28;20053;-76
2023/10/09 04:32:07;;;;;;;22.35;17.63;;;15.50;90.30;;;;;;5017565;28;20128;-76
2023/10/09 04:34:37;;;;;;;28.48;19.58;;;15.50;90.20;;;;;;5018960;28;20165;-76
2023/10/09 04:40:12;;;;;;;25.98;17.58;;;15.60;90.20;;;;;;4955497;28;20039;-78
2023/10/09 04:42:38;;;;;;;24.38;18.08;;;15.60;90.20;;;;;;5000586;28;20514;-77
2023/10/09 04:47:36;;;;;;;25.75;19.48;;;15.50;90.10;;;;;;5018618;28;20399;-75
2023/10/09 04:53:13;;;;;;;26.02;19.13;;;15.50;90.20;;;;;;5015026;28;20076;-74
2023/10/09 04:55:44;;;;;;;25.45;19.33;;;15.50;90.20;;;;;;5020013;28;20128;-75
2023/10/09 04:58:13;;;;;;;28.45;19.35;;;15.50;90.10;;;;;;5016552;28;20030;-76
2023/10/09 05:03:28;;;;;;;22.40;17.98;;;15.40;90.40;;;;;;5012099;28;20516;-77
2023/10/09 05:05:59;;;;;;;24.00;19.15;;;15.40;90.30;;;;;;5014916;28;20484;-78
2023/10/09 05:16:19;;;;;;;25.90;18.60;;;15.30;90.70;;;;;;5022949;28;20557;-78
2023/10/09 05:19:28;;;;;;;23.80;19.50;;;15.30;90.70;;;;;;5037678;28;20044;-77
2023/10/09 05:21:58;;;;;;;27.60;20.95;;;15.30;90.80;;;;;;5032329;28;20093;-75
2023/10/09 05:24:26;;;;;;;27.25;20.70;;;15.20;90.80;;;;;;5019230;28;20177;-75
2023/10/09 05:26:52;;;;;;;27.02;19.63;;;15.20;90.90;;;;;;5018239;28;20496;-77
2023/10/09 05:29:27;;;;;;;24.60;20.60;;;15.10;91.00;;;;;;5019374;28;20060;-75
2023/10/09 05:32:15;;;;;;;25.63;20.08;;;15.10;91.20;;;;;;5017281;28;20072;-75
2023/10/09 05:37:32;;;;;;;25.92;20.25;;;15.10;91.30;;;;;;5016130;28;20128;-76
2023/10/09 05:42:44;;;;;;;26.25;20.00;;;15.00;91.60;;;;;;5013843;28;20249;-80
2023/10/09 05:48:48;;;;;;;28.80;21.02;;;15.00;91.80;;;;;;5009706;28;20036;-77
2023/10/09 06:04:15;;;;;;;28.98;22.85;;;14.80;92.20;;;;;;5009563;28;20068;-74
2023/10/09 06:06:56;;;;;;;28.90;21.92;;;14.80;92.20;;;;;;5008817;28;20026;-75
2023/10/09 06:11:49;;;;;;;33.05;24.30;;;14.80;92.40;;;;;;5016278;28;20436;-78
2023/10/09 06:14:49;;;;;;;30.85;24.05;;;14.70;92.50;;;;;;5010344;28;20038;-75
2023/10/09 06:19:43;;;;;;;29.08;22.85;;;14.70;92.60;;;;;;5017905;28;20443;-83
2023/10/09 06:24:57;;;;;;;33.45;24.60;;;14.70;92.70;;;;;;5010088;28;20084;-86
2023/10/09 06:33:19;;;;;;;28.60;23.52;;;14.80;92.70;;;;;;4984137;28;20226;-81
2023/10/09 06:35:53;;;;;;;32.67;23.63;;;14.80;92.60;;;;;;5017693;28;20079;-88
2023/10/09 06:38:23;;;;;;;32.67;24.83;;;14.80;92.60;;;;;;5010433;28;20100;-83
2023/10/09 06:43:42;;;;;;;30.83;25.52;;;14.80;92.40;;;;;;5016082;28;20325;-80
2023/10/09 06:48:55;;;;;;;27.73;23.15;;;15.00;92.30;;;;;;5016091;28;20503;-80
2023/10/09 06:58:54;;;;;;;35.40;25.80;;;15.10;91.90;;;;;;5017643;28;20164;-79
2023/10/09 07:02:25;;;;;;;29.92;22.73;;;15.10;91.90;;;;;;5017322;28;20029;-79
2023/10/09 07:06:56;;;;;;;35.45;26.25;;;15.30;91.80;;;;;;5009618;28;19917;-79
2023/10/09 07:09:22;;;;;;;33.63;25.10;;;15.30;91.50;;;;;;5016862;28;20013;-81
2023/10/09 07:17:21;;;;;;;35.53;26.73;;;15.50;91.30;;;;;;4993947;28;20052;-80
2023/10/09 07:25:14;;;;;;;38.20;27.48;;;16.00;90.70;;;;;;5020951;28;20068;-80
2023/10/09 07:38:28;;;;;;;35.90;28.88;;;16.60;89.70;;;;;;5018105;28;20047;-76
2023/10/09 07:43:35;;;;;;;34.25;27.65;;;16.70;89.10;;;;;;5017341;28;20457;-75
2023/10/09 07:48:40;;;;;;;32.63;25.92;;;16.80;88.90;;;;;;5021518;28;20029;-78
2023/10/09 07:51:12;;;;;;;38.70;29.60;;;16.80;89.20;;;;;;5016463;28;20160;-79
2023/10/09 07:53:44;;;;;;;32.25;27.10;;;16.90;88.80;;;;;;5017600;28;20543;-77
2023/10/09 07:56:20;;;;;;;37.63;28.67;;;17.00;88.80;;;;;;5015416;28;20140;-79
2023/10/09 07:58:47;;;;;;;35.92;25.85;;;17.10;88.60;;;;;;5017403;28;20536;-75
2023/10/09 08:01:34;;;;;;;36.00;26.58;;;17.10;88.50;;;;;;5014619;28;20061;-77
2023/10/09 08:04:13;;;;;;;33.05;27.17;;;17.30;88.30;;;;;;5014017;28;20028;-78
2023/10/09 08:06:39;;;;;;;33.17;25.77;;;17.40;88.00;;;;;;5020880;28;20045;-75
2023/10/09 08:17:29;;;;;;;35.35;28.70;;;17.70;87.40;;;;;;5020725;28;20363;-75
2023/10/09 08:19:57;;;;;;;32.90;25.58;;;17.80;87.10;;;;;;5017269;28;20057;-76
2023/10/09 08:24:56;;;;;;;34.80;29.02;;;18.00;87.20;;;;;;5019507;28;20041;-75
2023/10/09 08:33:01;;;;;;;34.90;26.58;;;18.10;86.10;;;;;;5011093;28;20100;-76
2023/10/09 08:35:32;;;;;;;40.50;29.90;;;18.20;86.10;;;;;;5014089;28;20545;-76
2023/10/09 08:38:00;;;;;;;31.05;23.42;;;18.30;85.90;;;;;;5022390;28;20440;-77
2023/10/09 08:40:38;;;;;;;33.40;27.60;;;18.50;86.00;;;;;;5017668;28;20022;-80
2023/10/09 08:43:24;;;;;;;31.85;27.35;;;18.60;85.30;;;;;;5018192;28;20032;-75
2023/10/09 08:46:00;;;;;;;31.90;25.02;;;18.70;84.80;;;;;;5017710;28;20051;-76
2023/10/09 08:48:27;;;;;;;32.95;25.90;;;18.70;84.60;;;;;;5010766;28;20025;-76
2023/10/09 08:50:54;;;;;;;31.75;24.98;;;18.80;84.40;;;;;;5018006;28;20444;-76
2023/10/09 08:53:21;;;;;;;30.00;24.38;;;18.80;84.60;;;;;;5017907;28;20035;-77
2023/10/09 08:55:47;;;;;;;33.80;27.52;;;18.90;84.50;;;;;;5019391;28;20576;-76
2023/10/09 08:58:32;;;;;;;31.52;26.27;;;18.90;84.70;;;;;;5019996;28;20030;-77
2023/10/09 09:01:00;;;;;;;34.47;26.75;;;19.00;84.30;;;;;;5013802;28;20042;-78
2023/10/09 09:03:36;;;;;;;36.90;29.33;;;19.00;83.50;;;;;;5017715;28;20498;-77
2023/10/09 09:06:03;;;;;;;32.40;25.70;;;18.90;83.40;;;;;;5017302;28;20449;-76
2023/10/09 09:08:30;;;;;;;33.60;28.13;;;18.90;83.70;;;;;;5021132;28;20037;-75
2023/10/09 09:11:14;;;;;;;33.40;25.50;;;18.90;83.70;;;;;;5014737;28;20083;-75
2023/10/09 09:13:51;;;;;;;31.07;24.50;;;18.90;83.80;;;;;;5020617;28;20025;-74
2023/10/09 09:16:29;;;;;;;30.10;24.40;;;19.10;83.80;;;;;;5016543;28;20041;-76
2023/10/09 09:19:04;;;;;;;32.70;26.70;;;19.20;83.70;;;;;;5017183;28;20033;-75
2023/10/09 09:21:39;;;;;;;35.03;26.08;;;19.40;83.10;;;;;;5018622;28;20373;-75
2023/10/09 09:26:58;;;;;;;30.30;24.42;;;19.60;82.30;;;;;;5018999;28;20104;-84
2023/10/09 09:29:54;;;;;;;30.67;24.00;;;19.70;81.90;;;;;;5015076;28;20332;-80
2023/10/09 09:32:35;;;;;;;30.63;24.70;;;19.80;81.80;;;;;;5039068;28;20520;-82
2023/10/09 09:35:04;;;;;;;31.95;25.70;;;19.70;81.20;;;;;;5020389;28;20384;-79
2023/10/09 09:37:39;;;;;;;30.35;24.10;;;19.70;81.70;;;;;;5019528;28;20025;-84
2023/10/09 09:40:15;;;;;;;34.13;25.45;;;19.70;81.60;;;;;;5015256;28;20126;-86
2023/10/09 09:42:48;;;;;;;32.17;25.63;;;19.70;81.40;;;;;;5015718;28;20079;-83
2023/10/09 09:45:16;;;;;;;34.15;26.40;;;19.80;81.10;;;;;;5014835;28;20040;-79
2023/10/09 09:47:51;;;;;;;31.23;24.35;;;19.80;80.80;;;;;;5016504;28;20048;-80
2023/10/09 09:50:29;;;;;;;31.33;24.30;;;19.80;81.60;;;;;;5016421;28;20033;-78
2023/10/09 09:52:56;;;;;;;31.52;25.23;;;20.00;81.50;;;;;;5016605;28;20045;-82
2023/10/09 09:55:32;;;;;;;34.60;25.88;;;20.10;80.80;;;;;;5010870;28;20048;-82
2023/10/09 09:57:58;;;;;;;31.70;26.00;;;20.20;80.70;;;;;;5014318;28;20053;-80
2023/10/09 10:00:52;;;;;;;29.58;25.67;;;20.30;80.20;;;;;;5016689;28;20492;-79
2023/10/09 10:03:29;;;;;;;32.53;25.42;;;20.60;80.10;;;;;;5017224;28;20030;-81
2023/10/09 10:05:56;;;;;;;30.45;24.92;;;20.90;79.00;;;;;;5012753;28;20105;-80
2023/10/09 10:08:32;;;;;;;30.75;24.80;;;21.10;78.20;;;;;;5014690;28;20121;-77
2023/10/09 10:11:05;;;;;;;28.63;23.08;;;21.10;78.10;;;;;;5010136;28;20050;-82
2023/10/09 10:13:40;;;;;;;29.40;23.13;;;21.30;78.10;;;;;;5040076;28;20051;-83
2023/10/09 10:16:20;;;;;;;31.23;23.42;;;21.50;77.70;;;;;;5031891;28;20125;-84
2023/10/09 10:21:52;;;;;;;28.38;22.50;;;21.60;77.70;;;;;;5016069;28;20403;-84
2023/10/09 10:24:51;;;;;;;35.05;25.40;;;21.90;76.70;;;;;;5016827;28;20136;-82
2023/10/09 10:27:26;;;;;;;29.75;22.88;;;21.90;75.90;;;;;;5015674;28;20060;-79
2023/10/09 10:30:13;;;;;;;29.80;23.08;;;21.80;75.90;;;;;;5010141;28;20112;-79
2023/10/09 10:32:57;;;;;;;28.42;21.80;;;21.90;75.60;;;;;;5015687;28;20740;-80
2023/10/09 10:35:39;;;;;;;28.43;22.23;;;21.80;75.70;;;;;;5013528;28;20065;-80
2023/10/09 10:38:39;;;;;;;29.27;22.90;;;21.70;75.70;;;;;;5017412;28;20480;-79
2023/10/09 10:41:12;;;;;;;27.70;24.02;;;21.50;75.90;;;;;;5010454;28;20045;-80
2023/10/09 10:46:30;;;;;;;26.83;21.48;;;21.50;76.70;;;;;;5012759;28;20097;-85
2023/10/09 10:48:59;;;;;;;31.27;23.48;;;21.60;76.70;;;;;;5018440;28;20044;-81
2023/10/09 10:51:37;;;;;;;29.70;21.90;;;21.60;76.40;;;;;;5013850;28;20028;-78
2023/10/09 10:56:48;;;;;;;30.83;24.25;;;21.60;76.60;;;;;;5014769;28;20111;-83
2023/10/09 10:59:22;;;;;;;28.88;24.05;;;21.70;75.80;;;;;;5011797;28;20802;-78
2023/10/09 11:04:53;;;;;;;27.55;22.98;;;21.60;76.30;;;;;;5002007;28;20583;-77
2023/10/09 11:18:05;;;;;;;28.00;20.83;;;22.10;76.30;;;;;;5012966;28;20117;-86
2023/10/09 11:20:32;;;;;;;26.98;22.75;;;22.00;75.40;;;;;;5011986;28;20384;-80
2023/10/09 11:25:53;;;;;;;29.38;21.73;;;22.10;76.00;;;;;;5014105;28;20248;-78
2023/10/09 11:31:11;;;;;;;25.15;20.77;;;22.40;75.30;;;;;;5015867;28;20044;-82
2023/10/09 11:33:53;;;;;;;26.38;19.63;;;22.60;74.80;;;;;;5016983;28;20026;-78
2023/10/09 11:36:31;;;;;;;28.45;20.65;;;22.60;74.50;;;;;;5017524;28;20037;-82
2023/10/09 11:39:17;;;;;;;27.27;21.35;;;22.60;74.60;;;;;;5018499;28;20530;-82
2023/10/09 11:41:44;;;;;;;24.83;20.58;;;22.60;74.60;;;;;;5016553;28;20375;-80
2023/10/09 11:44:18;;;;;;;29.42;20.80;;;22.60;74.30;;;;;;5021035;28;20038;-84
2023/10/09 11:47:23;;;;;;;24.45;20.58;;;22.70;74.40;;;;;;5020198;28;20037;-81
2023/10/09 11:50:12;;;;;;;27.38;20.77;;;22.60;74.60;;;;;;5022035;28;20033;-79
2023/10/09 11:53:08;;;;;;;27.10;20.58;;;22.60;74.20;;;;;;5023672;28;20032;-85
2023/10/09 11:55:34;;;;;;;26.67;20.17;;;22.60;75.00;;;;;;5017993;28;20049;-85
2023/10/09 11:58:02;;;;;;;26.67;20.88;;;22.70;75.20;;;;;;5020417;28;20057;-82
2023/10/09 12:02:53;;;;;;;25.98;19.85;;;22.80;75.20;;;;;;5020906;28;20028;-80
2023/10/09 12:05:19;;;;;;;25.55;19.67;;;23.00;75.00;;;;;;5021892;28;20471;-81
2023/10/09 12:07:46;;;;;;;28.85;20.88;;;23.10;75.00;;;;;;5020540;28;20037;-81
2023/10/09 12:10:15;;;;;;;27.02;19.85;;;23.20;74.20;;;;;;5018523;28;20030;-82
2023/10/09 12:12:46;;;;;;;31.35;22.38;;;23.40;73.50;;;;;;5016086;28;20034;-81
2023/10/09 12:15:17;;;;;;;30.20;21.65;;;23.40;73.00;;;;;;5019139;28;20045;-80
2023/10/09 12:17:47;;;;;;;28.55;23.40;;;23.30;73.50;;;;;;5016602;28;20025;-82
2023/10/09 12:20:32;;;;;;;29.08;21.98;;;23.20;73.10;;;;;;5021715;28;20490;-82
2023/10/09 12:22:58;;;;;;;29.00;20.83;;;23.10;73.20;;;;;;5017769;28;20663;-81
2023/10/09 12:25:31;;;;;;;25.08;19.02;;;23.00;73.20;;;;;;5020674;28;20018;-81
2023/10/09 12:27:57;;;;;;;22.75;18.17;;;22.90;72.70;;;;;;5016185;28;20411;-81
2023/10/09 12:30:26;;;;;;;26.55;19.92;;;23.10;73.40;;;;;;5017448;28;20032;-85
2023/10/09 12:32:57;;;;;;;22.55;18.13;;;23.10;72.10;;;;;;5013863;28;20033;-81
2023/10/09 12:35:27;;;;;;;27.23;20.05;;;23.20;73.20;;;;;;5016135;28;20542;-81
2023/10/09 12:37:58;;;;;;;25.75;19.23;;;23.00;73.10;;;;;;5018116;28;20033;-83
2023/10/09 12:40:24;;;;;;;22.38;17.95;;;23.00;73.10;;;;;;5023975;28;20026;-86
2023/10/09 12:42:53;;;;;;;24.85;19.67;;;23.10;73.30;;;;;;5021235;28;20479;-80
2023/10/09 12:45:32;;;;;;;21.98;18.63;;;23.10;73.20;;;;;;5017589;28;20423;-79
2023/10/09 12:47:59;;;;;;;26.58;18.63;;;23.20;73.70;;;;;;5018478;28;20033;-80
2023/10/09 12:50:29;;;;;;;25.55;17.55;;;23.30;73.20;;;;;;5023875;28;20037;-83
2023/10/09 12:52:56;;;;;;;24.80;19.48;;;23.40;73.30;;;;;;5016860;28;20512;-79
2023/10/09 12:55:31;;;;;;;24.10;18.13;;;23.30;73.70;;;;;;5019590;28;20040;-87
2023/10/09 12:58:01;;;;;;;27.15;18.30;;;23.30;73.80;;;;;;5017689;28;20076;-80
2023/10/09 13:00:32;;;;;;;23.05;18.00;;;23.20;73.20;;;;;;5016176;28;20092;-82
2023/10/09 13:03:00;;;;;;;23.67;19.15;;;23.20;73.60;;;;;;5019163;28;20018;-79
2023/10/09 13:05:27;;;;;;;24.00;17.42;;;23.00;74.00;;;;;;5021286;28;20076;-81
2023/10/09 13:07:56;;;;;;;23.90;16.30;;;23.10;74.40;;;;;;5022535;28;20038;-82
2023/10/09 13:10:23;;;;;;;22.38;15.68;;;23.00;73.90;;;;;;5017798;28;20040;-84
2023/10/09 13:12:55;;;;;;;23.83;15.77;;;23.00;73.70;;;;;;5017786;28;20029;-83
2023/10/09 13:15:21;;;;;;;22.77;17.10;;;23.00;73.40;;;;;;5018121;28;20178;-79
2023/10/09 13:17:47;;;;;;;22.90;15.85;;;23.10;73.30;;;;;;5017999;28;20526;-78
2023/10/09 13:20:13;;;;;;;27.85;16.75;;;23.20;73.30;;;;;;5018539;28;20041;-80
2023/10/09 13:22:43;;;;;;;26.17;17.08;;;23.30;72.70;;;;;;5015799;28;20476;-82
2023/10/09 13:25:16;;;;;;;20.98;16.13;;;23.10;72.50;;;;;;5014957;28;20136;-83
2023/10/09 13:27:50;;;;;;;25.95;16.60;;;23.10;72.60;;;;;;5016339;28;20057;-80
2023/10/09 13:30:21;;;;;;;23.70;17.70;;;23.20;72.70;;;;;;5015345;28;20039;-80
2023/10/09 13:32:50;;;;;;;24.40;16.88;;;23.10;73.00;;;;;;5011686;28;20028;-82
2023/10/09 13:35:19;;;;;;;24.08;17.13;;;23.10;73.80;;;;;;5017072;28;20046;-78
2023/10/09 13:37:53;;;;;;;27.48;18.25;;;23.20;74.00;;;;;;5021231;28;20037;-81
2023/10/09 13:40:29;;;;;;;26.23;17.35;;;23.20;73.90;;;;;;5016773;28;20543;-81
2023/10/09 13:42:58;;;;;;;23.27;15.75;;;23.20;74.00;;;;;;5018725;28;20059;-79
2023/10/09 13:45:28;;;;;;;22.65;16.95;;;23.30;73.80;;;;;;5019800;28;20722;-78
2023/10/09 13:47:57;;;;;;;21.75;17.90;;;23.30;74.00;;;;;;5019590;28;20029;-78
2023/10/09 13:50:31;;;;;;;26.55;19.88;;;23.40;73.90;;;;;;5019846;28;20099;-82
2023/10/09 13:52:57;;;;;;;27.33;19.50;;;23.40;73.30;;;;;;5010788;28;20075;-79
2023/10/09 13:55:31;;;;;;;25.25;18.98;;;23.20;73.50;;;;;;5021024;28;20037;-78
2023/10/09 13:57:57;;;;;;;22.92;17.83;;;23.10;73.90;;;;;;5021524;28;20049;-81
2023/10/09 14:00:33;;;;;;;24.70;18.55;;;23.10;74.80;;;;;;5017872;28;20392;-84
2023/10/09 14:03:33;;;;;;;25.98;18.48;;;23.20;74.50;;;;;;5015984;28;20033;-83
2023/10/09 14:05:54;;;;;;;25.25;18.70;;;23.20;74.10;;;;;;5017366;28;20496;-80
2023/10/09 14:08:23;;;;;;;27.08;18.52;;;23.00;74.10;;;;;;5012786;28;20086;-80
2023/10/09 14:10:49;;;;;;;25.65;18.50;;;23.00;74.40;;;;;;5021240;28;20041;-79
2023/10/09 14:13:25;;;;;;;28.45;18.40;;;23.10;74.70;;;;;;5021219;28;20026;-79
2023/10/09 14:15:54;;;;;;;24.05;18.38;;;23.20;74.90;;;;;;5019108;28;20503;-81
2023/10/09 14:18:20;;;;;;;24.25;18.10;;;23.00;75.40;;;;;;5017973;28;20419;-83
2023/10/09 14:20:46;;;;;;;23.42;17.45;;;23.10;75.40;;;;;;5023756;28;20034;-82
2023/10/09 14:23:20;;;;;;;24.35;17.00;;;23.10;75.20;;;;;;5023276;28;20026;-81
2023/10/09 14:25:49;;;;;;;22.90;15.68;;;23.20;75.50;;;;;;5025462;28;20222;-84
2023/10/09 14:28:18;;;;;;;25.50;15.77;;;23.20;75.50;;;;;;5016866;28;20465;-81
2023/10/09 14:30:47;;;;;;;23.38;16.30;;;23.20;75.30;;;;;;5025161;28;20080;-80
2023/10/09 14:33:13;;;;;;;21.80;16.02;;;23.40;75.30;;;;;;5021521;28;20032;-78
2023/10/09 14:35:42;;;;;;;26.88;17.85;;;23.30;75.70;;;;;;5025720;28;20059;-81
2023/10/09 14:38:12;;;;;;;28.30;16.45;;;23.30;75.80;;;;;;5023450;28;20370;-80
2023/10/09 14:40:47;;;;;;;27.52;17.15;;;23.30;76.10;;;;;;5020157;28;20064;-79
2023/10/09 14:43:19;;;;;;;22.05;16.88;;;23.40;76.40;;;;;;5018733;28;20070;-79
2023/10/09 14:45:49;;;;;;;24.08;16.58;;;23.50;75.70;;;;;;5013699;28;20041;-81
2023/10/09 14:48:18;;;;;;;23.25;17.10;;;23.40;76.10;;;;;;5023161;28;20029;-79
2023/10/09 14:50:53;;;;;;;25.27;17.38;;;23.40;75.60;;;;;;5025756;28;20064;-77
2023/10/09 14:53:19;;;;;;;22.05;16.70;;;23.30;75.90;;;;;;5024048;28;20068;-79
2023/10/09 14:55:47;;;;;;;23.13;16.58;;;23.10;76.10;;;;;;5015661;28;20038;-79
2023/10/09 14:58:13;;;;;;;27.75;17.15;;;23.20;76.50;;;;;;5019283;28;20251;-81
2023/10/09 15:00:46;;;;;;;24.40;17.25;;;23.10;76.50;;;;;;5017142;28;20531;-80
2023/10/09 15:03:14;;;;;;;21.17;15.90;;;23.00;76.10;;;;;;5019103;28;20026;-78
2023/10/09 15:05:41;;;;;;;23.60;16.92;;;23.00;76.40;;;;;;5019381;28;20184;-78
2023/10/09 15:08:10;;;;;;;24.77;16.65;;;22.90;76.90;;;;;;5018033;28;20029;-80
2023/10/09 15:10:44;;;;;;;23.20;15.88;;;22.70;77.00;;;;;;5022778;28;20664;-79
2023/10/09 15:13:09;;;;;;;23.23;16.23;;;22.60;77.00;;;;;;5013028;28;20065;-79
2023/10/09 15:15:40;;;;;;;22.20;15.27;;;22.50;77.60;;;;;;5035901;28;20063;-86
2023/10/09 15:18:06;;;;;;;24.15;16.58;;;22.50;78.00;;;;;;5036980;28;20097;-83
2023/10/09 15:20:34;;;;;;;23.90;17.17;;;22.40;77.90;;;;;;5024721;28;20079;-81
2023/10/09 15:23:01;;;;;;;22.15;16.50;;;22.30;78.30;;;;;;5020355;28;20103;-75
2023/10/09 15:25:27;;;;;;;23.10;15.25;;;22.20;78.50;;;;;;5021429;28;20059;-76
2023/10/09 15:27:52;;;;;;;22.60;15.45;;;22.10;78.90;;;;;;5020538;28;20535;-78
2023/10/09 15:30:18;;;;;;;26.50;16.48;;;22.00;79.20;;;;;;5017892;28;20372;-86
2023/10/09 15:32:44;;;;;;;25.88;21.92;;;21.90;79.30;;;;;;5021895;28;20026;-79
2023/10/09 15:35:10;;;;;;;27.05;18.80;;;21.80;79.60;;;;;;5020956;28;20037;-80
2023/10/09 15:37:36;;;;;;;23.45;17.63;;;21.70;79.80;;;;;;5018466;28;20329;-77
2023/10/09 15:40:13;;;;;;;23.73;14.80;;;21.70;80.00;;;;;;5014332;28;20038;-76
2023/10/09 15:42:40;;;;;;;24.55;16.20;;;21.60;80.40;;;;;;5018855;28;20787;-78
2023/10/09 15:45:07;;;;;;;22.77;16.00;;;21.60;80.60;;;;;;5019666;28;20029;-77
2023/10/09 15:47:36;;;;;;;25.55;17.92;;;21.60;80.80;;;;;;5020751;28;20045;-74